createdAt,value
2023-05-22T00:02:22.821Z,15.57
2023-05-22T00:04:51.172Z,15.51
2023-05-22T00:07:18.345Z,15.47
2023-05-22T00:09:45.562Z,15.41
2023-05-22T00:12:12.764Z,15.37
2023-05-22T00:14:40.019Z,15.35
2023-05-22T00:17:07.210Z,15.29
2023-05-22T00:19:35.162Z,15.22
2023-05-22T00:22:02.578Z,15.15
2023-05-22T00:24:30.124Z,15.16
2023-05-22T00:26:58.145Z,15.16
2023-05-22T00:29:25.644Z,15.13
2023-05-22T00:31:53.211Z,15.11
2023-05-22T00:34:23.596Z,15.10
2023-05-22T00:36:51.226Z,15.19
2023-05-22T00:39:19.574Z,15.01
2023-05-22T00:41:47.380Z,14.64
2023-05-22T00:44:15.317Z,14.73
2023-05-22T00:46:49.877Z,14.79
2023-05-22T00:49:17.255Z,14.80
2023-05-22T00:51:44.895Z,14.90
2023-05-22T00:54:13.865Z,14.92
2023-05-22T00:56:43.216Z,14.93
2023-05-22T00:59:11.123Z,14.94
2023-05-22T01:01:42.189Z,14.94
2023-05-22T01:04:13.054Z,14.97
2023-05-22T01:06:41.346Z,15.13
2023-05-22T01:09:09.280Z,15.10
2023-05-22T01:12:19.729Z,14.95
2023-05-22T01:15:00.206Z,14.88
2023-05-22T01:18:06.926Z,15.03
2023-05-22T01:21:22.070Z,15.07
2023-05-22T01:24:26.677Z,15.15
2023-05-22T01:28:02.624Z,15.19
2023-05-22T01:30:56.625Z,15.28
2023-05-22T01:33:27.587Z,15.28
2023-05-22T01:36:00.264Z,15.26
2023-05-22T01:38:29.002Z,15.24
2023-05-22T01:40:58.381Z,15.24
2023-05-22T01:43:27.242Z,15.29
2023-05-22T01:46:01.977Z,15.35
2023-05-22T01:48:29.253Z,15.43
2023-05-22T01:51:03.692Z,15.52
2023-05-22T01:53:42.210Z,15.55
2023-05-22T01:56:30.664Z,15.65
2023-05-22T01:59:31.019Z,15.73
2023-05-22T02:02:07.850Z,15.78
2023-05-22T02:04:44.904Z,15.78
2023-05-22T02:07:16.902Z,15.81
2023-05-22T02:09:46.284Z,15.77
2023-05-22T02:12:14.575Z,15.76
2023-05-22T02:14:43.426Z,15.78
2023-05-22T02:17:10.732Z,15.81
2023-05-22T02:19:38.616Z,15.82
2023-05-22T02:22:06.377Z,15.81
2023-05-22T02:24:37.125Z,15.82
2023-05-22T02:27:04.777Z,15.86
2023-05-22T02:29:32.095Z,15.84
2023-05-22T02:31:59.373Z,15.79
2023-05-22T02:34:27.577Z,15.79
2023-05-22T02:36:59.836Z,15.82
2023-05-22T02:39:27.988Z,15.84
2023-05-22T02:41:55.717Z,15.88
2023-05-22T02:44:30.864Z,15.91
2023-05-22T02:47:01.739Z,15.93
2023-05-22T02:49:29.847Z,15.91
2023-05-22T02:51:57.269Z,15.98
2023-05-22T02:54:24.573Z,15.94
2023-05-22T02:56:51.936Z,15.90
2023-05-22T02:59:19.361Z,15.88
2023-05-22T03:01:48.492Z,15.91
2023-05-22T03:04:16.250Z,15.93
2023-05-22T03:06:45.607Z,15.97
2023-05-22T03:09:12.915Z,16.04
2023-05-22T03:11:40.192Z,16.08
2023-05-22T03:14:07.571Z,16.11
2023-05-22T03:16:35.004Z,16.13
2023-05-22T03:19:14.901Z,16.14
2023-05-22T03:21:46.030Z,16.09
2023-05-22T03:24:13.902Z,16.07
2023-05-22T03:26:41.894Z,16.05
2023-05-22T03:29:13.518Z,16.02
2023-05-22T03:31:42.039Z,15.94
2023-05-22T03:34:12.483Z,15.93
2023-05-22T03:36:41.321Z,15.89
2023-05-22T03:39:08.632Z,15.89
2023-05-22T03:41:40.841Z,15.87
2023-05-22T03:44:08.542Z,15.83
2023-05-22T03:46:35.889Z,15.81
2023-05-22T03:49:03.161Z,15.80
2023-05-22T03:51:31.487Z,15.76
2023-05-22T03:53:58.649Z,15.76
2023-05-22T03:56:26.563Z,15.76
2023-05-22T03:58:53.940Z,15.77
2023-05-22T04:01:22.374Z,15.80
2023-05-22T04:03:49.800Z,15.84
2023-05-22T04:06:17.654Z,15.87
2023-05-22T04:08:44.884Z,15.90
2023-05-22T04:11:15.635Z,15.91
2023-05-22T04:13:43.430Z,15.91
2023-05-22T04:16:10.960Z,15.80
2023-05-22T04:18:38.249Z,15.75
2023-05-22T04:21:08.153Z,15.74
2023-05-22T04:23:36.004Z,15.71
2023-05-22T04:26:08.708Z,15.72
2023-05-22T04:28:36.132Z,15.76
2023-05-22T04:31:06.465Z,15.78
2023-05-22T04:33:34.736Z,15.80
2023-05-22T04:36:02.821Z,15.85
2023-05-22T04:38:30.092Z,15.90
2023-05-22T04:40:58.427Z,15.94
2023-05-22T04:43:26.837Z,15.96
2023-05-22T04:45:54.877Z,16.00
2023-05-22T04:48:23.093Z,16.02
2023-05-22T04:51:02.528Z,16.01
2023-05-22T04:53:33.547Z,16.04
2023-05-22T04:56:00.903Z,16.07
2023-05-22T04:58:28.559Z,16.12
2023-05-22T05:00:58.010Z,16.18
2023-05-22T05:03:25.875Z,16.18
2023-05-22T05:05:53.476Z,16.17
2023-05-22T05:08:21.537Z,16.19
2023-05-22T05:10:49.352Z,16.25
2023-05-22T05:13:16.601Z,16.26
2023-05-22T05:15:45.694Z,16.28
2023-05-22T05:18:12.999Z,16.39
2023-05-22T05:20:40.565Z,16.50
2023-05-22T05:23:09.994Z,16.63
2023-05-22T05:25:38.654Z,16.71
2023-05-22T05:28:10.832Z,16.79
2023-05-22T05:30:40.438Z,16.89
2023-05-22T05:33:39.694Z,16.94
2023-05-22T05:36:13.940Z,16.99
2023-05-22T05:38:41.551Z,17.05
2023-05-22T05:41:09.298Z,17.06
2023-05-22T05:43:37.502Z,17.07
2023-05-22T05:46:07.960Z,17.01
2023-05-22T05:48:35.788Z,16.98
2023-05-22T05:51:03.470Z,17.01
2023-05-22T05:53:36.938Z,17.04
2023-05-22T05:56:07.504Z,17.14
2023-05-22T05:58:36.139Z,17.26
2023-05-22T06:01:32.954Z,17.36
2023-05-22T06:04:03.273Z,17.46
2023-05-22T06:06:36.159Z,17.49
2023-05-22T06:09:15.621Z,17.66
2023-05-22T06:12:01.474Z,17.83
2023-05-22T06:14:29.018Z,17.98
2023-05-22T06:16:56.415Z,18.00
2023-05-22T06:19:23.849Z,18.12
2023-05-22T06:21:52.239Z,18.09
2023-05-22T06:24:20.783Z,18.02
2023-05-22T06:26:47.948Z,18.01
2023-05-22T06:29:15.283Z,18.02
2023-05-22T06:31:42.860Z,18.00
2023-05-22T06:34:10.223Z,18.03
2023-05-22T06:36:37.586Z,18.10
2023-05-22T06:39:05.168Z,18.19
2023-05-22T06:41:50.788Z,18.26
2023-05-22T06:44:18.092Z,18.54
2023-05-22T06:46:45.318Z,18.75
2023-05-22T06:49:19.883Z,18.73
2023-05-22T06:51:50.987Z,18.86
2023-05-22T06:54:19.705Z,18.95
2023-05-22T06:56:48.961Z,18.95
2023-05-22T06:59:17.505Z,19.02
2023-05-22T07:02:03.439Z,18.88
2023-05-22T07:04:57.572Z,19.17
2023-05-22T07:07:32.130Z,19.34
2023-05-22T07:09:59.350Z,19.33
2023-05-22T07:12:29.581Z,19.44
2023-05-22T07:14:57.835Z,19.61
2023-05-22T07:17:26.581Z,19.54
2023-05-22T07:19:54.824Z,19.66
2023-05-22T07:22:23.511Z,19.80
2023-05-22T07:24:50.906Z,19.85
2023-05-22T07:27:19.527Z,19.88
2023-05-22T07:29:49.339Z,19.92
2023-05-22T07:32:16.982Z,19.94
2023-05-22T07:34:44.749Z,19.89
2023-05-22T07:37:14.097Z,19.92
2023-05-22T07:39:42.629Z,19.92
2023-05-22T07:42:10.632Z,20.07
2023-05-22T07:44:50.412Z,20.10
2023-05-22T07:47:28.374Z,20.23
2023-05-22T07:50:06.414Z,20.30
2023-05-22T07:52:45.757Z,20.29
2023-05-22T07:55:36.150Z,20.28
2023-05-22T07:58:17.635Z,20.12
2023-05-22T08:00:57.048Z,20.05
2023-05-22T08:03:34.192Z,20.10
2023-05-22T08:08:47.880Z,20.12
2023-05-22T08:11:15.053Z,20.07
2023-05-22T08:13:42.311Z,20.25
2023-05-22T08:16:10.107Z,20.44
2023-05-22T08:18:37.264Z,20.58
2023-05-22T08:21:04.630Z,20.75
2023-05-22T08:23:32.637Z,20.89
2023-05-22T08:25:59.829Z,21.39
2023-05-22T08:28:27.008Z,21.47
2023-05-22T08:30:55.163Z,21.39
2023-05-22T08:33:22.342Z,21.35
2023-05-22T08:35:49.516Z,21.22
2023-05-22T08:38:17.514Z,21.04
2023-05-22T08:40:51.433Z,21.16
2023-05-22T08:43:21.285Z,21.36
2023-05-22T08:46:00.832Z,21.51
2023-05-22T08:48:32.843Z,21.61
2023-05-22T08:51:05.814Z,21.34
2023-05-22T08:53:38.972Z,21.19
2023-05-22T08:56:08.550Z,21.46
2023-05-22T08:58:38.083Z,21.56
2023-05-22T09:01:07.362Z,21.74
2023-05-22T09:03:36.943Z,22.23
2023-05-22T09:06:09.262Z,22.42
2023-05-22T09:08:38.006Z,22.65
2023-05-22T09:11:05.268Z,22.72
2023-05-22T09:13:32.572Z,22.78
2023-05-22T09:16:11.751Z,23.00
2023-05-22T09:18:41.178Z,23.00
2023-05-22T09:21:28.704Z,22.67
2023-05-22T09:24:01.482Z,22.86
2023-05-22T09:26:29.488Z,23.07
2023-05-22T09:28:59.577Z,23.38
2023-05-22T09:31:31.714Z,23.27
2023-05-22T09:33:59.742Z,23.35
2023-05-22T09:36:33.606Z,23.29
2023-05-22T09:39:03.051Z,23.21
2023-05-22T09:41:38.253Z,23.12
2023-05-22T09:44:16.425Z,23.29
2023-05-22T09:46:47.802Z,23.51
2023-05-22T09:49:17.040Z,23.25
2023-05-22T09:51:49.347Z,23.28
2023-05-22T09:54:19.882Z,23.47
2023-05-22T09:56:50.973Z,23.66
2023-05-22T09:59:23.363Z,23.58
2023-05-22T10:01:51.161Z,23.80
2023-05-22T10:04:19.382Z,24.03
2023-05-22T10:06:54.223Z,23.72
2023-05-22T10:09:31.101Z,23.93
2023-05-22T10:12:04.360Z,24.03
2023-05-22T10:14:32.666Z,24.23
2023-05-22T10:17:04.785Z,24.10
2023-05-22T10:19:33.154Z,23.72
2023-05-22T10:22:01.973Z,23.33
2023-05-22T10:24:30.969Z,23.56
2023-05-22T10:26:59.233Z,23.75
2023-05-22T10:29:45.525Z,24.03
2023-05-22T10:32:39.688Z,23.87
2023-05-22T10:35:44.985Z,23.58
2023-05-22T10:38:46.000Z,23.92
2023-05-22T10:41:13.885Z,24.02
2023-05-22T10:43:48.857Z,24.02
2023-05-22T10:46:17.221Z,24.03
2023-05-22T10:48:48.009Z,24.41
2023-05-22T10:51:21.708Z,24.36
2023-05-22T10:54:05.633Z,23.64
2023-05-22T10:56:35.725Z,24.32
2023-05-22T10:59:07.825Z,24.65
2023-05-22T11:01:37.724Z,23.96
2023-05-22T11:04:15.711Z,24.38
2023-05-22T11:07:02.424Z,24.78
2023-05-22T11:09:45.955Z,24.93
2023-05-22T11:12:24.726Z,25.05
2023-05-22T11:15:13.540Z,25.65
2023-05-22T11:17:44.977Z,25.91
2023-05-22T11:20:15.455Z,27.04
2023-05-22T11:22:51.233Z,28.36
2023-05-22T11:25:20.268Z,26.61
2023-05-22T11:27:49.058Z,28.60
2023-05-22T11:30:17.377Z,27.51
2023-05-22T11:32:46.416Z,28.45
2023-05-22T11:35:22.301Z,31.50
2023-05-22T11:37:52.869Z,33.90
2023-05-22T11:40:29.713Z,32.96
2023-05-22T11:42:57.359Z,30.22
2023-05-22T11:45:25.249Z,27.69
2023-05-22T11:47:52.983Z,28.94
2023-05-22T11:50:33.523Z,29.48
2023-05-22T11:53:08.063Z,31.37
2023-05-22T11:55:35.642Z,31.97
2023-05-22T11:58:02.875Z,30.19
2023-05-22T12:00:31.967Z,30.89
2023-05-22T12:02:59.698Z,31.33
2023-05-22T12:05:27.097Z,28.43
2023-05-22T12:07:54.433Z,27.27
2023-05-22T12:10:21.732Z,27.97
2023-05-22T12:12:49.156Z,27.35
2023-05-22T12:15:22.391Z,27.36
2023-05-22T12:17:49.604Z,26.04
2023-05-22T12:20:16.891Z,26.50
2023-05-22T12:22:44.335Z,29.02
2023-05-22T12:25:17.958Z,31.27
2023-05-22T12:27:46.147Z,28.55
2023-05-22T12:30:14.768Z,27.09
2023-05-22T12:32:49.437Z,27.24
2023-05-22T12:35:18.430Z,27.51
2023-05-22T12:37:51.260Z,28.15
2023-05-22T12:40:19.214Z,31.18
2023-05-22T12:42:48.035Z,30.02
2023-05-22T12:45:15.352Z,33.22
2023-05-22T12:47:42.660Z,30.72
2023-05-22T12:50:10.146Z,32.23
2023-05-22T12:52:37.545Z,33.76
2023-05-22T12:55:05.504Z,32.38
2023-05-22T12:57:32.660Z,30.64
2023-05-22T12:59:59.886Z,29.60
2023-05-22T13:02:27.312Z,28.45
2023-05-22T13:04:54.579Z,28.48
2023-05-22T13:07:21.801Z,30.15
2023-05-22T13:09:49.008Z,32.02
2023-05-22T13:12:16.400Z,31.99
2023-05-22T13:14:43.631Z,30.75
2023-05-22T13:17:11.690Z,31.86
2023-05-22T13:19:38.922Z,33.50
2023-05-22T13:22:07.567Z,34.52
2023-05-22T13:24:34.856Z,33.67
2023-05-22T13:27:02.018Z,32.71
2023-05-22T13:29:29.212Z,34.29
2023-05-22T13:31:56.392Z,35.46
2023-05-22T13:34:23.683Z,31.39
2023-05-22T13:36:51.041Z,31.14
2023-05-22T13:39:18.197Z,32.63
2023-05-22T13:41:45.682Z,33.58
2023-05-22T13:44:12.895Z,33.61
2023-05-22T13:46:41.106Z,33.76
2023-05-22T13:49:08.827Z,34.22
2023-05-22T13:51:36.186Z,34.23
2023-05-22T13:54:04.580Z,32.31
2023-05-22T13:56:31.808Z,33.16
2023-05-22T13:58:58.976Z,34.38
2023-05-22T14:01:26.287Z,34.82
2023-05-22T14:03:53.538Z,35.31
2023-05-22T14:06:20.856Z,34.07
2023-05-22T14:08:48.456Z,32.02
2023-05-22T14:11:15.849Z,31.69
2023-05-22T14:13:43.445Z,31.66
2023-05-22T14:16:10.673Z,30.61
2023-05-22T14:18:37.925Z,33.53
2023-05-22T14:21:05.162Z,34.75
2023-05-22T14:23:32.381Z,32.45
2023-05-22T14:25:59.560Z,32.02
2023-05-22T14:28:26.778Z,33.40
2023-05-22T14:30:54.103Z,30.85
2023-05-22T14:33:21.329Z,30.14
2023-05-22T14:35:48.791Z,30.53
2023-05-22T14:38:15.948Z,31.88
2023-05-22T14:40:43.484Z,32.30
2023-05-22T14:43:11.130Z,32.36
2023-05-22T14:45:38.297Z,31.17
2023-05-22T14:48:05.787Z,32.69
2023-05-22T14:50:33.001Z,34.36
2023-05-22T14:53:00.274Z,36.13
2023-05-22T14:55:28.134Z,33.42
2023-05-22T14:57:55.903Z,34.20
2023-05-22T15:00:23.149Z,32.26
2023-05-22T15:02:50.469Z,34.32
2023-05-22T15:05:17.948Z,35.34
2023-05-22T15:07:47.264Z,35.31
2023-05-22T15:10:15.795Z,36.37
2023-05-22T15:12:42.979Z,36.40
2023-05-22T15:15:11.184Z,34.52
2023-05-22T15:17:39.512Z,36.09
2023-05-22T15:20:10.468Z,35.98
2023-05-22T15:22:37.714Z,36.38
2023-05-22T15:25:15.280Z,36.49
2023-05-22T15:27:42.907Z,37.14
2023-05-22T15:30:11.905Z,34.95
2023-05-22T15:32:39.383Z,34.80
2023-05-22T15:35:07.796Z,32.96
2023-05-22T15:37:36.440Z,32.82
2023-05-22T15:40:06.016Z,33.60
2023-05-22T15:42:33.802Z,33.82
2023-05-22T15:45:01.345Z,33.33
2023-05-22T15:47:29.574Z,34.78
2023-05-22T15:49:56.836Z,34.50
2023-05-22T15:52:24.517Z,31.99
2023-05-22T15:54:52.019Z,33.55
2023-05-22T15:57:19.228Z,33.76
2023-05-22T15:59:51.051Z,33.67
2023-05-22T16:02:18.975Z,33.08
2023-05-22T16:04:46.932Z,34.03
2023-05-22T16:07:14.194Z,33.61
2023-05-22T16:09:43.317Z,31.50
2023-05-22T16:12:10.646Z,31.31
2023-05-22T16:14:39.882Z,30.89
2023-05-22T16:17:07.658Z,31.90
2023-05-22T16:19:35.199Z,30.61
2023-05-22T16:22:03.005Z,30.37
2023-05-22T16:24:30.237Z,30.46
2023-05-22T16:26:59.713Z,32.50
2023-05-22T16:29:26.935Z,31.83
2023-05-22T16:31:54.141Z,31.07
2023-05-22T16:34:21.463Z,31.63
2023-05-22T16:36:48.624Z,31.45
2023-05-22T16:39:15.956Z,32.49
2023-05-22T16:41:43.128Z,30.97
2023-05-22T16:44:10.328Z,29.83
2023-05-22T16:46:37.527Z,30.45
2023-05-22T16:49:04.814Z,32.40
2023-05-22T16:51:32.229Z,32.99
2023-05-22T16:53:59.585Z,30.93
2023-05-22T16:56:27.205Z,28.97
2023-05-22T16:58:54.392Z,28.70
2023-05-22T17:01:21.947Z,29.72
2023-05-22T17:03:49.511Z,29.39
2023-05-22T17:06:18.343Z,29.63
2023-05-22T17:08:47.407Z,29.13
2023-05-22T17:11:14.592Z,29.69
2023-05-22T17:13:41.823Z,30.22
2023-05-22T17:16:09.060Z,28.56
2023-05-22T17:18:36.672Z,29.66
2023-05-22T17:21:04.490Z,28.16
2023-05-22T17:23:31.787Z,27.26
2023-05-22T17:25:59.064Z,27.03
2023-05-22T17:28:26.347Z,27.70
2023-05-22T17:30:54.020Z,27.60
2023-05-22T17:33:21.252Z,27.13
2023-05-22T17:35:48.654Z,26.54
2023-05-22T17:38:15.856Z,26.34
2023-05-22T17:40:45.320Z,26.89
2023-05-22T17:43:13.706Z,27.33
2023-05-22T17:45:41.732Z,27.44
2023-05-22T17:48:09.273Z,26.81
2023-05-22T17:50:36.586Z,26.96
2023-05-22T17:53:03.903Z,26.66
2023-05-22T17:55:31.137Z,26.57
2023-05-22T17:57:59.558Z,26.74
2023-05-22T18:00:26.736Z,26.82
2023-05-22T18:02:54.067Z,26.42
2023-05-22T18:05:21.404Z,26.22
2023-05-22T18:07:48.726Z,26.41
2023-05-22T18:10:16.019Z,26.54
2023-05-22T18:12:43.287Z,26.41
2023-05-22T18:15:12.276Z,26.16
2023-05-22T18:17:41.132Z,25.97
2023-05-22T18:20:11.861Z,25.86
2023-05-22T18:22:40.347Z,25.70
2023-05-22T18:25:09.168Z,25.58
2023-05-22T18:27:36.828Z,25.46
2023-05-22T18:30:05.369Z,25.35
2023-05-22T18:32:34.127Z,25.20
2023-05-22T18:35:03.604Z,25.20
2023-05-22T18:37:30.897Z,25.08
2023-05-22T18:39:58.311Z,25.12
2023-05-22T18:42:25.579Z,25.04
2023-05-22T18:44:53.036Z,24.96
2023-05-22T18:47:20.497Z,24.82
2023-05-22T18:49:47.648Z,24.74
2023-05-22T18:52:14.933Z,24.70
2023-05-22T18:54:42.290Z,24.55
2023-05-22T18:57:09.497Z,24.49
2023-05-22T18:59:37.690Z,24.40
2023-05-22T19:02:05.287Z,24.29
2023-05-22T19:04:32.530Z,24.17
2023-05-22T19:07:00.213Z,24.12
2023-05-22T19:09:27.505Z,24.06
2023-05-22T19:11:54.678Z,24.01
2023-05-22T19:14:22.998Z,23.83
2023-05-22T19:16:50.301Z,23.74
2023-05-22T19:19:17.774Z,23.71
2023-05-22T19:21:44.996Z,23.58
2023-05-22T19:24:12.169Z,23.47
2023-05-22T19:26:39.352Z,23.34
2023-05-22T19:29:06.560Z,23.28
2023-05-22T19:31:34.951Z,23.29
2023-05-22T19:34:02.718Z,23.27
2023-05-22T19:36:29.882Z,23.27
2023-05-22T19:38:57.156Z,23.21
2023-05-22T19:41:24.379Z,23.14
2023-05-22T19:43:51.849Z,22.98
2023-05-22T19:46:19.065Z,22.84
2023-05-22T19:48:46.370Z,22.69
2023-05-22T19:51:13.628Z,22.53
2023-05-22T19:53:42.430Z,22.49
2023-05-22T19:56:09.728Z,22.38
2023-05-22T19:58:37.034Z,22.26
2023-05-22T20:01:04.254Z,22.13
2023-05-22T20:03:31.596Z,22.06
2023-05-22T20:05:58.825Z,22.05
2023-05-22T20:08:26.254Z,22.04
2023-05-22T20:10:53.486Z,21.96
2023-05-22T20:13:20.768Z,21.82
2023-05-22T20:15:48.094Z,21.70
2023-05-22T20:18:15.400Z,21.59
2023-05-22T20:20:42.765Z,21.47
2023-05-22T20:23:09.996Z,21.43
2023-05-22T20:25:37.724Z,21.42
2023-05-22T20:28:05.291Z,21.40
2023-05-22T20:30:32.807Z,21.32
2023-05-22T20:33:00.040Z,21.25
2023-05-22T20:35:27.378Z,21.13
2023-05-22T20:37:55.078Z,21.07
2023-05-22T20:40:22.288Z,21.00
2023-05-22T20:42:50.385Z,20.87
2023-05-22T20:45:17.575Z,20.84
2023-05-22T20:47:45.125Z,20.77
2023-05-22T20:50:12.732Z,20.69
2023-05-22T20:52:40.105Z,20.65
2023-05-22T20:55:08.440Z,20.58
2023-05-22T20:57:35.659Z,20.55
2023-05-22T21:00:05.442Z,20.47
2023-05-22T21:02:32.977Z,20.40
2023-05-22T21:05:00.494Z,20.39
2023-05-22T21:07:27.697Z,20.38
2023-05-22T21:09:54.867Z,20.41
2023-05-22T21:12:22.277Z,20.39
2023-05-22T21:14:49.495Z,20.35
2023-05-22T21:17:16.818Z,20.30
2023-05-22T21:19:44.135Z,20.29
2023-05-22T21:22:11.340Z,20.16
2023-05-22T21:24:38.496Z,20.11
2023-05-22T21:27:05.815Z,20.11
2023-05-22T21:29:32.994Z,20.08
2023-05-22T21:32:00.409Z,20.10
2023-05-22T21:34:27.674Z,20.10
2023-05-22T21:36:54.883Z,20.03
2023-05-22T21:39:22.117Z,19.88
2023-05-22T21:41:50.064Z,19.78
2023-05-22T21:44:18.409Z,19.73
2023-05-22T21:46:45.665Z,19.73
2023-05-22T21:49:12.903Z,19.75
2023-05-22T21:51:40.121Z,19.70
2023-05-22T21:54:07.311Z,19.62
2023-05-22T21:56:34.550Z,19.49
2023-05-22T21:59:01.823Z,19.45
2023-05-22T22:01:29.236Z,19.33
2023-05-22T22:03:56.496Z,19.31
2023-05-22T22:06:24.170Z,19.28
2023-05-22T22:08:53.116Z,19.26
2023-05-22T22:11:20.481Z,19.20
2023-05-22T22:13:47.736Z,19.17
2023-05-22T22:16:15.253Z,19.13
2023-05-22T22:18:43.811Z,19.15
2023-05-22T22:21:11.956Z,19.20
2023-05-22T22:23:39.141Z,19.13
2023-05-22T22:26:06.632Z,19.03
2023-05-22T22:28:34.520Z,18.95
2023-05-22T22:31:01.955Z,18.85
2023-05-22T22:33:30.335Z,18.80
2023-05-22T22:36:09.503Z,18.75
2023-05-22T22:38:38.405Z,18.69
2023-05-22T22:41:08.606Z,18.63
2023-05-22T22:43:36.093Z,18.62
2023-05-22T22:46:03.311Z,18.57
2023-05-22T22:48:30.561Z,18.53
2023-05-22T22:50:58.159Z,18.43
2023-05-22T22:53:25.526Z,18.40
2023-05-22T22:55:59.385Z,18.39
2023-05-22T22:58:26.693Z,18.33
2023-05-22T23:00:54.160Z,18.25
2023-05-22T23:03:21.645Z,18.21
2023-05-22T23:05:49.177Z,18.14
2023-05-22T23:08:16.454Z,18.13
2023-05-22T23:10:43.749Z,18.07
2023-05-22T23:13:11.012Z,18.07
2023-05-22T23:15:38.422Z,18.12
2023-05-22T23:18:05.950Z,18.15
2023-05-22T23:20:33.278Z,18.05
2023-05-22T23:23:00.761Z,17.96
2023-05-22T23:25:28.008Z,17.98
2023-05-22T23:27:55.819Z,17.94
2023-05-22T23:30:23.032Z,17.82
2023-05-22T23:32:50.539Z,17.75
2023-05-22T23:35:17.726Z,17.72
2023-05-22T23:37:44.928Z,17.76
2023-05-22T23:40:12.889Z,17.76
2023-05-22T23:42:40.148Z,17.71
2023-05-22T23:45:08.138Z,17.68
2023-05-22T23:47:35.423Z,17.68
2023-05-22T23:50:02.612Z,17.58
2023-05-22T23:52:29.808Z,17.48
2023-05-22T23:54:57.001Z,17.49
2023-05-22T23:57:24.269Z,17.46
2023-05-22T23:59:51.460Z,17.41
